Terminal Aerodrome Forecast
Issued by NWS

Home | Current Version | Previous Version | Text Only | Print | Product List | Glossary On
Versions: 1 2 3 4 5 6 7 8 9 10 11 12 13 14
000
FTUS45 KRIW 290500
TAFBPI
TAF
KBPI 290532Z 2906/3006 35008KT P6SM FEW050
     FM290800 VRB04KT P6SM VCFG SCT003
     FM291900 VRB05KT P6SM FEW015
     FM300200 35006KT P6SM SCT110 BKN200=

USA.gov is the U.S. government's official web portal to all federal, state and local government web resources and services.